Time;durP1;ratioP1;P1;durP2;ratioP2;P2;SDS_P1;SDS_P2;PMS_P1;PMS_P2;Temp;Humidity;BMP_temperature;BMP_pressure;BME280_temperature;BME280_humidity;BME280_pressure;Samples;Min_cycle;Max_cycle;Signal;HPM_P1;HPM_P2
2023/12/07 00:01:24;0.00;0.00;0.62;0.00;0.00;0.62;3.73;2.70;;;18.80;24.50;;;;;;2264484;61;20861;-55
2023/12/07 00:04:08;0.00;0.00;0.62;0.00;0.00;0.62;2.70;2.30;;;18.80;24.50;;;;;;2264441;61;20395;-53
2023/12/07 00:06:53;0.00;0.00;0.62;0.00;0.00;0.62;2.93;2.40;;;18.80;24.50;;;;;;2264378;61;20463;-55
2023/12/07 00:09:37;0.00;0.00;0.62;0.00;0.00;0.62;3.10;2.23;;;18.90;25.10;;;;;;2264704;61;20399;-59
2023/12/07 00:12:22;0.00;0.00;0.62;0.00;0.00;0.62;3.57;2.80;;;18.80;24.50;;;;;;2263665;61;20403;-54
2023/12/07 00:15:08;0.00;0.00;0.62;0.00;0.00;0.62;3.20;2.50;;;18.80;24.50;;;;;;2264670;61;20412;-51
2023/12/07 00:17:54;0.00;0.00;0.62;0.00;0.00;0.62;3.70;2.37;;;18.90;24.60;;;;;;2263926;61;20967;-54
2023/12/07 00:20:38;0.00;0.00;0.62;0.00;0.00;0.62;3.30;2.70;;;18.90;24.60;;;;;;2264638;61;20781;-59
2023/12/07 00:23:23;0.00;0.00;0.62;0.00;0.00;0.62;2.80;2.13;;;18.90;24.60;;;;;;2263974;61;20794;-56
2023/12/07 00:26:08;0.00;0.00;0.62;0.00;0.00;0.62;3.43;2.93;;;18.90;24.60;;;;;;2264167;61;20368;-54
2023/12/07 00:28:53;0.00;0.00;0.62;0.00;0.00;0.62;3.90;2.57;;;18.90;24.60;;;;;;2264627;61;20360;-58
2023/12/07 00:31:38;0.00;0.00;0.62;0.00;0.00;0.62;3.57;2.30;;;18.90;24.60;;;;;;2264208;61;20422;-59
2023/12/07 00:34:23;0.00;0.00;0.62;0.00;0.00;0.62;2.93;2.10;;;18.90;24.60;;;;;;2264168;61;21050;-50
2023/12/07 00:37:08;0.00;0.00;0.62;0.00;0.00;0.62;3.10;2.30;;;18.90;24.60;;;;;;2264655;61;21004;-55
2023/12/07 00:39:53;0.00;0.00;0.62;0.00;0.00;0.62;5.80;2.23;;;18.80;24.50;;;;;;2264041;61;20491;-58
2023/12/07 00:42:37;0.00;0.00;0.62;0.00;0.00;0.62;3.37;2.50;;;18.80;24.60;;;;;;2264267;61;20383;-54
2023/12/07 00:45:22;0.00;0.00;0.62;0.00;0.00;0.62;3.30;2.50;;;18.80;25.00;;;;;;2264429;61;20824;-56
2023/12/07 00:48:07;0.00;0.00;0.62;0.00;0.00;0.62;3.50;2.70;;;18.80;24.60;;;;;;2264123;61;20452;-56
2023/12/07 00:50:53;0.00;0.00;0.62;0.00;0.00;0.62;3.43;2.40;;;18.90;24.60;;;;;;2264842;61;20360;-56
2023/12/07 00:53:38;0.00;0.00;0.62;0.00;0.00;0.62;2.83;2.10;;;18.90;24.60;;;;;;2264847;61;20387;-55
2023/12/07 00:56:22;0.00;0.00;0.62;0.00;0.00;0.62;3.00;2.23;;;18.90;24.60;;;;;;2264714;61;20406;-56
2023/12/07 00:59:07;0.00;0.00;0.62;0.00;0.00;0.62;2.83;2.00;;;18.90;24.60;;;;;;2265013;61;20379;-53
2023/12/07 01:01:51;0.00;0.00;0.62;0.00;0.00;0.62;3.00;2.03;;;18.80;24.60;;;;;;2261487;61;20508;-56
2023/12/07 01:04:36;0.00;0.00;0.62;0.00;0.00;0.62;2.93;2.63;;;18.80;24.50;;;;;;2265099;61;20367;-56
2023/12/07 01:07:22;0.00;0.00;0.62;0.00;0.00;0.62;2.40;2.10;;;18.90;24.60;;;;;;2264917;61;20360;-53
2023/12/07 01:10:08;0.00;0.00;0.62;0.00;0.00;0.62;2.70;2.10;;;18.80;24.60;;;;;;2264734;61;20880;-53
2023/12/07 01:12:53;0.00;0.00;0.62;0.00;0.00;0.62;2.50;2.20;;;18.90;24.60;;;;;;2264771;61;20382;-56
2023/12/07 01:15:38;0.00;0.00;0.62;0.00;0.00;0.62;3.17;2.40;;;18.80;24.60;;;;;;2265185;61;20513;-57
2023/12/07 01:18:22;0.00;0.00;0.62;0.00;0.00;0.62;2.90;2.40;;;18.90;24.60;;;;;;2264465;61;20464;-55
2023/12/07 01:21:07;0.00;0.00;0.62;0.00;0.00;0.62;3.20;2.27;;;18.90;24.60;;;;;;2264961;61;20400;-58
2023/12/07 01:23:53;0.00;0.00;0.62;0.00;0.00;0.62;3.00;2.67;;;18.80;24.60;;;;;;2264658;61;20387;-54
2023/12/07 01:26:38;0.00;0.00;0.62;0.00;0.00;0.62;3.20;2.43;;;18.80;24.60;;;;;;2264874;61;20376;-54
2023/12/07 01:29:23;0.00;0.00;0.62;0.00;0.00;0.62;2.50;2.03;;;18.90;24.60;;;;;;2264976;61;20373;-52
2023/12/07 01:32:07;0.00;0.00;0.62;0.00;0.00;0.62;2.80;2.10;;;18.80;24.50;;;;;;2264300;61;20826;-58
2023/12/07 01:34:52;0.00;0.00;0.62;0.00;0.00;0.62;2.83;2.27;;;18.90;24.60;;;;;;2264853;61;20449;-56
2023/12/07 01:37:37;0.00;0.00;0.62;0.00;0.00;0.62;3.10;2.10;;;18.90;24.60;;;;;;2265019;61;20785;-56
2023/12/07 01:40:23;0.00;0.00;0.62;0.00;0.00;0.62;2.27;1.90;;;18.90;24.60;;;;;;2266409;61;20378;-61
2023/12/07 01:43:07;0.00;0.00;0.62;0.00;0.00;0.62;2.43;2.00;;;18.80;24.60;;;;;;2271476;61;20926;-54
2023/12/07 01:45:56;0.00;0.00;0.62;0.00;0.00;0.62;2.90;1.90;;;18.90;24.60;;;;;;2272873;61;20392;-53
2023/12/07 01:48:41;0.00;0.00;0.62;0.00;0.00;0.62;2.60;2.17;;;18.90;24.60;;;;;;2272860;61;20909;-52
2023/12/07 01:51:26;0.00;0.00;0.62;0.00;0.00;0.62;3.40;2.70;;;18.80;24.60;;;;;;2272850;61;20354;-56
2023/12/07 01:54:11;0.00;0.00;0.62;0.00;0.00;0.62;3.10;2.10;;;18.90;24.60;;;;;;2272597;61;20995;-53
2023/12/07 01:56:57;0.00;0.00;0.62;0.00;0.00;0.62;2.90;2.00;;;18.90;24.60;;;;;;2266260;61;20430;-57
2023/12/07 01:59:41;0.00;0.00;0.62;0.00;0.00;0.62;3.70;2.33;;;18.80;24.60;;;;;;2267493;61;20367;-52
2023/12/07 02:02:26;0.00;0.00;0.62;0.00;0.00;0.62;2.50;1.93;;;18.90;24.60;;;;;;2264868;61;20378;-56
2023/12/07 02:05:13;0.00;0.00;0.62;0.00;0.00;0.62;2.30;1.90;;;18.80;24.50;;;;;;2268969;61;20764;-53
2023/12/07 02:07:58;0.00;0.00;0.62;0.00;0.00;0.62;2.60;2.20;;;18.80;24.60;;;;;;2268573;61;20354;-53
2023/12/07 02:10:42;0.00;0.00;0.62;0.00;0.00;0.62;2.77;2.20;;;18.90;24.60;;;;;;2265472;61;20386;-57
2023/12/07 02:13:28;0.00;0.00;0.62;0.00;0.00;0.62;2.30;1.80;;;18.80;24.50;;;;;;2268678;61;20387;-57
2023/12/07 02:16:21;0.00;0.00;0.62;0.00;0.00;0.62;2.30;2.07;;;18.80;24.60;;;;;;2268490;61;20880;-56
2023/12/07 02:19:22;0.00;0.00;0.62;0.00;0.00;0.62;2.33;1.80;;;18.80;24.60;;;;;;2268601;61;20414;-54
2023/12/07 02:22:13;0.00;0.00;0.62;0.00;0.00;0.62;2.43;1.67;;;18.80;24.60;;;;;;2265502;61;20367;-57
2023/12/07 02:25:07;0.00;0.00;0.62;0.00;0.00;0.62;2.53;1.97;;;18.90;24.60;;;;;;2267222;61;20773;-51
2023/12/07 02:27:53;0.00;0.00;0.62;0.00;0.00;0.62;1.97;1.60;;;18.80;24.60;;;;;;2268875;61;20366;-55
2023/12/07 02:30:38;0.00;0.00;0.62;0.00;0.00;0.62;1.90;1.50;;;18.90;24.70;;;;;;2268916;61;20438;-57
2023/12/07 02:33:22;0.00;0.00;0.62;0.00;0.00;0.62;2.70;1.70;;;18.80;24.60;;;;;;2268581;61;20475;-56
2023/12/07 02:36:07;0.00;0.00;0.62;0.00;0.00;0.62;2.30;1.77;;;18.80;24.60;;;;;;2268942;61;20363;-51
2023/12/07 02:38:56;0.00;0.00;0.62;0.00;0.00;0.62;2.63;1.80;;;18.90;24.70;;;;;;2268399;61;20382;-56
2023/12/07 02:41:43;0.00;0.00;0.62;0.00;0.00;0.62;2.60;2.13;;;18.80;24.60;;;;;;2268447;61;20367;-58
2023/12/07 02:44:29;0.00;0.00;0.62;0.00;0.00;0.62;2.47;1.90;;;18.90;24.60;;;;;;2268822;61;20436;-55
2023/12/07 02:47:14;0.00;0.00;0.62;0.00;0.00;0.62;2.13;1.50;;;18.90;24.70;;;;;;2267432;61;20467;-56
2023/12/07 02:49:59;0.00;0.00;0.62;0.00;0.00;0.62;2.20;1.80;;;18.80;24.60;;;;;;2268759;61;20417;-55
2023/12/07 02:52:45;0.00;0.00;0.62;0.00;0.00;0.62;2.20;1.90;;;18.90;24.60;;;;;;2268499;61;20518;-55
2023/12/07 02:55:29;0.00;0.00;0.62;0.00;0.00;0.62;2.90;1.77;;;18.90;24.60;;;;;;2265521;61;20958;-56
2023/12/07 02:58:14;0.00;0.00;0.62;0.00;0.00;0.62;2.10;1.73;;;18.90;24.70;;;;;;2268616;61;20409;-56
2023/12/07 03:01:06;0.00;0.00;0.62;0.00;0.00;0.62;2.73;1.80;;;18.80;24.60;;;;;;2265892;61;20910;-60
2023/12/07 03:03:51;0.00;0.00;0.62;0.00;0.00;0.62;2.30;1.60;;;18.80;24.60;;;;;;2268239;61;20851;-56
2023/12/07 03:06:35;0.00;0.00;0.62;0.00;0.00;0.62;2.47;1.90;;;18.80;24.60;;;;;;2268727;61;20363;-56
2023/12/07 03:09:20;0.00;0.00;0.62;0.00;0.00;0.62;1.97;1.67;;;18.90;24.70;;;;;;2265151;61;20367;-56
2023/12/07 03:12:06;0.00;0.00;0.62;0.00;0.00;0.62;2.40;1.43;;;18.80;24.60;;;;;;2268205;61;20367;-56
2023/12/07 03:14:51;0.00;0.00;0.62;0.00;0.00;0.62;2.30;1.60;;;18.90;24.60;;;;;;2269215;61;20470;-56
2023/12/07 03:17:37;0.00;0.00;0.62;0.00;0.00;0.62;2.30;1.70;;;18.90;24.60;;;;;;2272632;61;21000;-53
2023/12/07 03:20:21;0.00;0.00;0.62;0.00;0.00;0.62;2.00;1.70;;;18.90;25.20;;;;;;2272605;61;20366;-61
2023/12/07 03:23:06;0.00;0.00;0.62;0.00;0.00;0.62;2.17;1.57;;;18.90;24.70;;;;;;2272104;61;20424;-57
2023/12/07 03:25:50;0.00;0.00;0.62;0.00;0.00;0.62;2.57;2.27;;;18.90;24.60;;;;;;2272704;61;20897;-53
2023/12/07 03:28:35;0.00;0.00;0.62;0.00;0.00;0.62;1.73;1.20;;;18.90;24.70;;;;;;2272785;61;20366;-53
2023/12/07 03:31:20;0.00;0.00;0.62;0.00;0.00;0.62;2.40;1.53;;;18.90;24.60;;;;;;2272135;61;20926;-55
2023/12/07 03:34:06;0.00;0.00;0.62;0.00;0.00;0.62;2.20;1.60;;;18.90;24.70;;;;;;2269387;61;20418;-58
2023/12/07 03:36:51;0.00;0.00;0.62;0.00;0.00;0.62;2.47;1.70;;;18.90;24.60;;;;;;2272674;61;20366;-54
2023/12/07 03:39:35;0.00;0.00;0.62;0.00;0.00;0.62;2.73;1.70;;;18.80;24.60;;;;;;2272274;61;20863;-52
2023/12/07 03:42:20;0.00;0.00;0.62;0.00;0.00;0.62;2.20;1.50;;;18.90;24.60;;;;;;2272037;61;20403;-55
2023/12/07 03:45:07;0.00;0.00;0.62;0.00;0.00;0.62;2.10;1.70;;;18.90;24.60;;;;;;2272502;61;20366;-54
2023/12/07 03:47:51;0.00;0.00;0.62;0.00;0.00;0.62;2.53;1.83;;;18.90;24.70;;;;;;2272587;61;20894;-57
2023/12/07 03:50:37;0.00;0.00;0.62;0.00;0.00;0.62;2.20;1.53;;;18.90;24.70;;;;;;2272795;61;20370;-54
2023/12/07 03:53:22;0.00;0.00;0.62;0.00;0.00;0.62;2.40;1.90;;;18.90;24.60;;;;;;2271764;61;20386;-55
2023/12/07 03:56:07;0.00;0.00;0.62;0.00;0.00;0.62;2.50;2.00;;;18.90;24.70;;;;;;2269294;61;20416;-55
2023/12/07 03:58:52;0.00;0.00;0.62;0.00;0.00;0.62;2.50;1.77;;;18.90;24.70;;;;;;2272552;61;20475;-57
2023/12/07 04:01:37;0.00;0.00;0.62;0.00;0.00;0.62;2.83;1.97;;;18.90;24.70;;;;;;2271684;61;20393;-57
2023/12/07 04:04:22;0.00;0.00;0.62;0.00;0.00;0.62;2.40;1.87;;;18.90;24.70;;;;;;2272464;61;20966;-59
2023/12/07 04:07:08;0.00;0.00;0.62;0.00;0.00;0.62;1.90;1.40;;;18.90;24.60;;;;;;2272473;61;20918;-55
2023/12/07 04:09:52;0.00;0.00;0.62;0.00;0.00;0.62;2.27;1.50;;;18.90;24.70;;;;;;2272462;61;20371;-54
2023/12/07 04:12:37;0.00;0.00;0.62;0.00;0.00;0.62;2.50;1.87;;;18.80;24.60;;;;;;2272389;61;20381;-59
2023/12/07 04:15:21;0.00;0.00;0.62;0.00;0.00;0.62;1.87;1.37;;;18.90;24.60;;;;;;2269009;61;20396;-52
2023/12/07 04:18:06;0.00;0.00;0.62;0.00;0.00;0.62;2.20;1.70;;;18.90;24.60;;;;;;2272548;61;20393;-57
2023/12/07 04:20:51;0.00;0.00;0.62;0.00;0.00;0.62;3.00;1.67;;;18.80;24.60;;;;;;2272418;61;20361;-59
2023/12/07 04:23:37;0.00;0.00;0.62;0.00;0.00;0.62;2.00;1.73;;;18.90;24.60;;;;;;2271924;61;20471;-57
2023/12/07 04:26:22;0.00;0.00;0.62;0.00;0.00;0.62;2.03;1.43;;;18.90;24.70;;;;;;2273423;61;20782;-59
2023/12/07 04:29:06;0.00;0.00;0.62;0.00;0.00;0.62;2.17;1.70;;;18.90;24.70;;;;;;2273203;61;20400;-57
2023/12/07 04:31:51;0.00;0.00;0.62;0.00;0.00;0.62;1.80;1.50;;;18.90;24.70;;;;;;2273001;61;20361;-57
2023/12/07 04:34:36;0.00;0.00;0.62;0.00;0.00;0.62;2.47;1.63;;;18.90;24.60;;;;;;2273381;61;20365;-57
2023/12/07 04:37:20;0.00;0.00;0.62;0.00;0.00;0.62;1.90;1.60;;;18.90;24.60;;;;;;2272850;61;20416;-54
2023/12/07 04:40:10;0.00;0.00;0.62;0.00;0.00;0.62;1.93;1.40;;;18.90;24.60;;;;;;2273271;61;20369;-57
2023/12/07 04:42:55;0.00;0.00;0.62;0.00;0.00;0.62;1.80;1.50;;;18.90;24.60;;;;;;2272673;61;20383;-58
2023/12/07 04:45:39;0.00;0.00;0.62;0.00;0.00;0.62;2.27;1.80;;;18.90;24.60;;;;;;2272990;61;20448;-54
2023/12/07 04:48:25;0.00;0.00;0.62;0.00;0.00;0.62;1.83;1.43;;;18.90;24.60;;;;;;2273292;61;20353;-57
2023/12/07 04:51:10;0.00;0.00;0.62;0.00;0.00;0.62;2.10;1.43;;;18.90;24.60;;;;;;2273243;61;20370;-55
2023/12/07 04:53:54;0.00;0.00;0.62;0.00;0.00;0.62;2.53;1.63;;;18.90;24.60;;;;;;2272924;61;20381;-54
2023/12/07 04:56:41;0.00;0.00;0.62;0.00;0.00;0.62;1.80;1.50;;;18.90;24.60;;;;;;2269986;61;20374;-57
2023/12/07 04:59:26;0.00;0.00;0.62;0.00;0.00;0.62;2.27;1.70;;;18.90;24.70;;;;;;2269303;61;20382;-60
2023/12/07 05:02:11;0.00;0.00;0.62;0.00;0.00;0.62;2.33;1.50;;;18.90;24.60;;;;;;2272870;61;20420;-54
2023/12/07 05:04:55;0.00;0.00;0.62;0.00;0.00;0.62;2.10;1.67;;;18.90;24.70;;;;;;2273069;61;20407;-55
2023/12/07 05:07:40;0.00;0.00;0.62;0.00;0.00;0.62;2.17;1.70;;;18.90;24.70;;;;;;2272896;61;20358;-58
2023/12/07 05:10:25;0.00;0.00;0.62;0.00;0.00;0.62;1.60;1.20;;;18.90;24.60;;;;;;2273321;61;20812;-55
2023/12/07 05:13:11;0.00;0.00;0.62;0.00;0.00;0.62;2.27;1.70;;;18.90;24.60;;;;;;2272783;61;20775;-54
2023/12/07 05:15:55;0.00;0.00;0.62;0.00;0.00;0.62;2.13;1.40;;;18.90;24.70;;;;;;2272721;61;20889;-59
2023/12/07 05:18:40;0.00;0.00;0.62;0.00;0.00;0.62;2.13;1.37;;;18.90;24.60;;;;;;2272669;61;20417;-55
2023/12/07 05:21:25;0.00;0.00;0.62;0.00;0.00;0.62;2.50;1.43;;;18.90;24.70;;;;;;2272820;61;20392;-52
2023/12/07 05:24:10;0.00;0.00;0.62;0.00;0.00;0.62;1.90;1.33;;;18.90;24.60;;;;;;2273340;61;20428;-51
2023/12/07 05:26:54;0.00;0.00;0.62;0.00;0.00;0.62;2.20;1.60;;;18.90;24.60;;;;;;2273319;61;20354;-55
2023/12/07 05:29:40;0.00;0.00;0.62;0.00;0.00;0.62;2.27;1.50;;;18.90;24.70;;;;;;2272772;61;20770;-57
2023/12/07 05:32:24;0.00;0.00;0.62;0.00;0.00;0.62;1.73;1.30;;;18.90;24.60;;;;;;2272571;61;20932;-57
2023/12/07 05:35:09;0.00;0.00;0.62;0.00;0.00;0.62;1.87;1.50;;;18.90;24.60;;;;;;2273214;60;20424;-58
2023/12/07 05:37:53;0.00;0.00;0.62;0.00;0.00;0.62;2.13;1.67;;;18.90;24.60;;;;;;2272808;61;20870;-58
2023/12/07 05:40:38;0.00;0.00;0.62;0.00;0.00;0.62;1.87;1.50;;;18.80;24.60;;;;;;2273122;61;20354;-58
2023/12/07 05:43:23;0.00;0.00;0.62;0.00;0.00;0.62;1.80;1.60;;;18.90;24.60;;;;;;2272181;61;20386;-57
2023/12/07 05:46:09;0.00;0.00;0.62;0.00;0.00;0.62;2.27;1.83;;;18.90;24.60;;;;;;2273039;61;20363;-56
2023/12/07 05:48:53;0.00;0.00;0.62;0.00;0.00;0.62;1.80;1.40;;;18.90;25.20;;;;;;2273061;61;20403;-59
2023/12/07 05:51:38;0.00;0.00;0.62;0.00;0.00;0.62;2.20;1.70;;;18.80;24.60;;;;;;2272516;61;20491;-58
2023/12/07 05:54:22;0.00;0.00;0.62;0.00;0.00;0.62;2.00;1.60;;;18.90;24.60;;;;;;2273192;61;20840;-57
2023/12/07 05:57:07;0.00;0.00;0.62;0.00;0.00;0.62;2.43;1.70;;;18.90;24.60;;;;;;2272915;61;20426;-53
2023/12/07 05:59:51;0.00;0.00;0.62;0.00;0.00;0.62;1.80;1.30;;;18.90;24.60;;;;;;2269266;61;20405;-58
2023/12/07 06:02:37;0.00;0.00;0.62;0.00;0.00;0.62;1.63;1.20;;;18.90;24.60;;;;;;2272625;61;20386;-54
2023/12/07 06:05:22;0.00;0.00;0.62;0.00;0.00;0.62;1.93;1.37;;;18.90;24.60;;;;;;2272804;61;20771;-59
2023/12/07 06:08:06;0.00;0.00;0.62;0.00;0.00;0.62;2.20;1.63;;;18.90;24.60;;;;;;2269988;61;20760;-56
2023/12/07 06:10:51;0.00;0.00;0.62;0.00;0.00;0.62;2.03;1.40;;;18.90;24.70;;;;;;2272921;61;20358;-56
2023/12/07 06:13:37;0.00;0.00;0.62;0.00;0.00;0.62;2.00;1.20;;;18.90;24.60;;;;;;2272277;61;20381;-57
2023/12/07 06:16:21;0.00;0.00;0.62;0.00;0.00;0.62;1.73;1.33;;;18.90;24.60;;;;;;2273023;61;20878;-54
2023/12/07 06:19:07;0.00;0.00;0.62;0.00;0.00;0.62;2.07;1.50;;;18.90;24.60;;;;;;2272824;61;20397;-55
2023/12/07 06:21:52;0.00;0.00;0.62;0.00;0.00;0.62;1.60;1.23;;;18.90;24.70;;;;;;2272164;61;20374;-59
2023/12/07 06:24:37;0.00;0.00;0.62;0.00;0.00;0.62;2.93;1.53;;;18.90;24.60;;;;;;2272939;61;20362;-59
2023/12/07 06:27:21;0.00;0.00;0.62;0.00;0.00;0.62;1.73;1.33;;;18.90;24.70;;;;;;2272845;61;20366;-57
2023/12/07 06:30:07;0.00;0.00;0.62;0.00;0.00;0.62;1.90;1.30;;;18.90;24.60;;;;;;2269386;61;20892;-55
2023/12/07 06:32:52;0.00;0.00;0.62;0.00;0.00;0.62;2.20;1.27;;;18.90;24.60;;;;;;2272455;61;20386;-55
2023/12/07 06:35:38;0.00;0.00;0.62;0.00;0.00;0.62;1.80;1.53;;;18.90;24.60;;;;;;2269289;61;20354;-58
2023/12/07 06:38:23;0.00;0.00;0.62;0.00;0.00;0.62;1.70;1.50;;;18.90;24.70;;;;;;2272677;61;20427;-57
2023/12/07 06:41:08;0.00;0.00;0.62;0.00;0.00;0.62;1.47;1.17;;;18.90;24.60;;;;;;2272896;61;20416;-58
2023/12/07 06:43:53;0.00;0.00;0.62;0.00;0.00;0.62;1.70;1.17;;;18.90;24.60;;;;;;2272033;61;21036;-56
2023/12/07 06:46:39;0.00;0.00;0.62;0.00;0.00;0.62;1.93;1.33;;;18.80;24.60;;;;;;2272911;60;20369;-58
2023/12/07 06:49:24;0.00;0.00;0.62;0.00;0.00;0.62;1.60;1.10;;;18.80;24.60;;;;;;2272711;61;20355;-57
2023/12/07 06:52:11;0.00;0.00;0.62;0.00;0.00;0.62;1.87;1.20;;;18.90;24.60;;;;;;2272256;61;20362;-57
2023/12/07 06:54:55;0.00;0.00;0.62;0.00;0.00;0.62;2.50;1.20;;;18.90;24.70;;;;;;2273003;61;20370;-51
2023/12/07 06:57:40;0.00;0.00;0.62;0.00;0.00;0.62;2.00;1.30;;;18.90;24.70;;;;;;2272446;61;20412;-54
2023/12/07 07:00:24;0.00;0.00;0.62;0.00;0.00;0.62;2.10;1.30;;;18.90;24.70;;;;;;2272851;61;20354;-56
2023/12/07 07:03:09;0.00;0.00;0.62;0.00;0.00;0.62;2.77;1.30;;;18.90;24.60;;;;;;2272445;61;20967;-57
2023/12/07 07:05:54;0.00;0.00;0.62;0.00;0.00;0.62;1.90;1.20;;;18.90;24.70;;;;;;2272379;61;20354;-54
2023/12/07 07:08:39;0.00;0.00;0.62;0.00;0.00;0.62;2.23;1.70;;;18.90;24.70;;;;;;2272998;61;20894;-57
2023/12/07 07:11:24;0.00;0.00;0.62;0.00;0.00;0.62;2.17;1.73;;;18.90;24.60;;;;;;2272700;61;20888;-56
2023/12/07 07:14:09;0.00;0.00;0.62;0.00;0.00;0.62;2.20;1.40;;;18.90;24.70;;;;;;2272559;61;20382;-54
2023/12/07 07:16:54;0.00;0.00;0.62;0.00;0.00;0.62;1.90;1.43;;;18.90;24.70;;;;;;2272816;61;20767;-54
2023/12/07 07:19:39;0.00;0.00;0.62;0.00;0.00;0.62;1.80;1.30;;;18.90;24.70;;;;;;2272567;61;20408;-53
2023/12/07 07:22:23;0.00;0.00;0.62;0.00;0.00;0.62;2.40;1.70;;;18.90;24.70;;;;;;2272154;61;20365;-55
2023/12/07 07:25:09;0.00;0.00;0.62;0.00;0.00;0.62;2.17;1.70;;;18.90;24.70;;;;;;2272761;61;20362;-58
2023/12/07 07:27:54;0.00;0.00;0.62;0.00;0.00;0.62;2.60;1.40;;;18.90;24.70;;;;;;2272417;61;20359;-56
2023/12/07 07:30:39;0.00;0.00;0.62;0.00;0.00;0.62;2.40;2.00;;;18.90;24.70;;;;;;2269445;61;20369;-54
2023/12/07 07:33:24;0.00;0.00;0.62;0.00;0.00;0.62;1.97;1.33;;;18.90;24.60;;;;;;2272398;61;20949;-52
2023/12/07 07:36:11;0.00;0.00;0.62;0.00;0.00;0.62;2.70;1.93;;;18.90;24.60;;;;;;2272495;61;20390;-57
2023/12/07 07:38:55;0.00;0.00;0.62;0.00;0.00;0.62;2.97;2.13;;;18.90;24.70;;;;;;2266463;61;20443;-59
2023/12/07 07:41:41;0.00;0.00;0.62;0.00;0.00;0.62;2.70;1.80;;;18.90;24.70;;;;;;2272179;61;20366;-58
2023/12/07 07:44:26;0.00;0.00;0.62;0.00;0.00;0.62;2.53;1.70;;;18.90;24.70;;;;;;2269095;61;20918;-57
2023/12/07 07:47:11;0.00;0.00;0.62;0.00;0.00;0.62;2.90;2.47;;;18.90;24.70;;;;;;2272382;61;20917;-55
2023/12/07 07:49:55;0.00;0.00;0.62;0.00;0.00;0.62;3.37;2.17;;;18.90;24.70;;;;;;2272114;61;20343;-56
2023/12/07 07:52:40;0.00;0.00;0.62;0.00;0.00;0.62;3.40;2.67;;;18.90;24.70;;;;;;2268884;61;20432;-55
2023/12/07 07:55:25;0.00;0.00;0.62;0.00;0.00;0.62;2.97;2.23;;;18.90;24.70;;;;;;2272263;61;20393;-57
2023/12/07 07:58:11;0.00;0.00;0.62;0.00;0.00;0.62;3.70;3.20;;;18.90;24.70;;;;;;2267879;61;20379;-56
2023/12/07 08:00:55;0.00;0.00;0.62;0.00;0.00;0.62;3.83;3.13;;;18.90;24.70;;;;;;2269256;61;20922;-59
2023/12/07 08:03:40;0.00;0.00;0.62;0.00;0.00;0.62;4.03;3.03;;;18.90;24.70;;;;;;2268983;61;20386;-57
2023/12/07 08:06:24;0.00;0.00;0.62;0.00;0.00;0.62;3.93;3.20;;;18.90;24.70;;;;;;2269108;61;20906;-57
2023/12/07 08:09:09;0.00;0.00;0.62;0.00;0.00;0.62;3.83;2.90;;;18.90;24.70;;;;;;2269138;61;20420;-57
2023/12/07 08:11:54;0.00;0.00;0.62;0.00;0.00;0.62;4.43;3.20;;;18.90;24.70;;;;;;2268478;61;20872;-56
2023/12/07 08:14:42;0.00;0.00;0.62;0.00;0.00;0.62;5.23;3.60;;;18.90;24.70;;;;;;2269181;61;20398;-55
2023/12/07 08:17:27;0.00;0.00;0.62;0.00;0.00;0.62;4.50;3.30;;;18.90;24.70;;;;;;2269075;61;20372;-53
2023/12/07 08:20:14;0.00;0.00;0.62;0.00;0.00;0.62;4.43;3.50;;;18.90;24.70;;;;;;2268766;61;20987;-56
2023/12/07 08:22:59;0.00;0.00;0.62;0.00;0.00;0.62;3.73;3.27;;;18.90;24.70;;;;;;2265438;61;20436;-55
2023/12/07 08:25:44;0.00;0.00;0.62;0.00;0.00;0.62;4.23;3.50;;;18.90;24.70;;;;;;2269304;61;20363;-62
2023/12/07 08:28:28;0.00;0.00;0.62;0.00;0.00;0.62;5.10;4.00;;;18.90;24.70;;;;;;2269004;61;20358;-57
2023/12/07 08:31:14;0.00;0.00;0.62;0.00;0.00;0.62;4.90;3.70;;;18.90;24.70;;;;;;2269362;61;20413;-56
2023/12/07 08:34:00;0.00;0.00;0.62;0.00;0.00;0.62;5.10;3.53;;;18.90;24.70;;;;;;2268602;61;20429;-58
2023/12/07 08:36:45;0.00;0.00;0.62;0.00;0.00;0.62;4.43;4.00;;;18.90;24.70;;;;;;2269352;61;20820;-58
2023/12/07 08:39:29;0.00;0.00;0.62;0.00;0.00;0.62;6.17;4.67;;;18.90;24.70;;;;;;2265964;61;20391;-56
2023/12/07 08:42:14;0.00;0.00;0.62;0.00;0.00;0.62;5.90;4.33;;;18.90;24.70;;;;;;2267588;61;20382;-56
2023/12/07 08:44:59;0.00;0.00;0.62;0.00;0.00;0.62;4.70;4.17;;;18.90;24.70;;;;;;2269298;61;20359;-57
2023/12/07 08:47:45;0.00;0.00;0.62;0.00;0.00;0.62;5.20;3.90;;;18.90;24.70;;;;;;2269130;61;20406;-53
2023/12/07 08:50:30;0.00;0.00;0.62;0.00;0.00;0.62;5.83;4.17;;;18.90;24.70;;;;;;2268997;61;20868;-55
2023/12/07 08:53:14;0.00;0.00;0.62;0.00;0.00;0.62;5.67;4.30;;;18.90;24.70;;;;;;2268976;61;20965;-57
2023/12/07 08:56:00;0.00;0.00;0.62;0.00;0.00;0.62;6.13;4.77;;;18.90;24.70;;;;;;2268753;61;20456;-58
2023/12/07 08:58:44;0.00;0.00;0.62;0.00;0.00;0.62;6.87;4.80;;;18.90;24.70;;;;;;2265935;61;20382;-58
2023/12/07 09:01:32;0.00;0.00;0.62;0.00;0.00;0.62;9.03;4.63;;;18.90;24.70;;;;;;2269105;61;20895;-56
2023/12/07 09:04:18;0.00;0.00;0.62;0.00;0.00;0.62;5.50;4.10;;;18.90;24.70;;;;;;2268786;61;20390;-52
2023/12/07 09:07:03;0.00;0.00;0.62;0.00;0.00;0.62;5.40;4.23;;;18.90;24.70;;;;;;2269139;61;20367;-53
2023/12/07 09:09:48;0.00;0.00;0.62;0.00;0.00;0.62;4.90;3.97;;;18.90;24.70;;;;;;2269051;61;20413;-55
2023/12/07 09:12:32;0.00;0.00;0.62;0.00;0.00;0.62;5.33;4.33;;;18.90;24.70;;;;;;2268530;61;20383;-58
2023/12/07 09:15:17;0.00;0.00;0.62;0.00;0.00;0.62;5.13;4.40;;;18.90;24.70;;;;;;2265837;61;20896;-53
2023/12/07 09:18:02;0.00;0.00;0.62;0.00;0.00;0.62;5.77;4.33;;;18.90;24.70;;;;;;2268689;61;20451;-57
2023/12/07 09:20:49;0.00;0.00;0.62;0.00;0.00;0.62;5.03;4.00;;;18.90;24.70;;;;;;2269082;61;20355;-59
2023/12/07 09:23:34;0.00;0.00;0.62;0.00;0.00;0.62;5.50;4.77;;;18.90;24.70;;;;;;2265571;61;20903;-56
2023/12/07 09:26:19;0.00;0.00;0.62;0.00;0.00;0.62;5.50;4.20;;;18.90;24.70;;;;;;2268950;61;20362;-56
2023/12/07 09:29:04;0.00;0.00;0.62;0.00;0.00;0.62;5.47;4.50;;;18.90;24.70;;;;;;2269137;61;20375;-58
2023/12/07 09:31:48;0.00;0.00;0.62;0.00;0.00;0.62;5.53;4.30;;;18.90;24.70;;;;;;2268670;61;20459;-55
2023/12/07 09:34:33;0.00;0.00;0.62;0.00;0.00;0.62;4.30;3.63;;;18.90;24.70;;;;;;2268535;61;20967;-54
2023/12/07 09:37:19;0.00;0.00;0.62;0.00;0.00;0.62;5.60;5.03;;;18.90;24.70;;;;;;2269318;61;20494;-53
2023/12/07 09:40:07;0.00;0.00;0.62;0.00;0.00;0.62;5.10;4.47;;;18.90;25.20;;;;;;2268582;61;20808;-57
2023/12/07 09:42:52;0.00;0.00;0.62;0.00;0.00;0.62;4.80;3.93;;;18.90;24.70;;;;;;2268648;61;20839;-54
2023/12/07 09:45:37;0.00;0.00;0.62;0.00;0.00;0.62;4.40;3.80;;;18.90;24.70;;;;;;2268910;61;20363;-60
2023/12/07 09:48:22;0.00;0.00;0.62;0.00;0.00;0.62;5.00;4.20;;;18.90;24.70;;;;;;2268663;61;20367;-56
2023/12/07 09:51:08;0.00;0.00;0.62;0.00;0.00;0.62;4.50;3.70;;;18.90;24.70;;;;;;2269020;61;20397;-57
2023/12/07 09:53:54;0.00;0.00;0.62;0.00;0.00;0.62;4.53;3.77;;;18.90;24.70;;;;;;2268665;61;20445;-53
2023/12/07 09:56:38;0.00;0.00;0.62;0.00;0.00;0.62;5.23;4.30;;;18.90;24.70;;;;;;2268764;61;20416;-54
2023/12/07 09:59:23;0.00;0.00;0.62;0.00;0.00;0.62;5.70;4.40;;;18.90;24.70;;;;;;2269192;61;20407;-56
2023/12/07 10:02:08;0.00;0.00;0.62;0.00;0.00;0.62;5.67;4.17;;;18.90;24.70;;;;;;2268784;61;20371;-56
2023/12/07 10:05:04;0.00;0.00;0.62;0.00;0.00;0.62;5.00;3.73;;;18.90;24.70;;;;;;2269008;61;20372;-58
2023/12/07 10:07:50;0.00;0.00;0.62;0.00;0.00;0.62;5.50;3.60;;;18.90;24.70;;;;;;2268828;61;20413;-54
2023/12/07 10:10:37;0.00;0.00;0.62;0.00;0.00;0.62;5.03;4.20;;;18.90;24.70;;;;;;2268411;61;20768;-54
2023/12/07 10:13:21;0.00;0.00;0.62;0.00;0.00;0.62;4.90;3.73;;;18.90;24.70;;;;;;2268610;61;20396;-54
2023/12/07 10:16:09;0.00;0.00;0.62;0.00;0.00;0.62;5.73;4.20;;;18.90;24.70;;;;;;2269007;61;20465;-57
2023/12/07 10:18:54;0.00;0.00;0.62;0.00;0.00;0.62;4.80;4.27;;;18.90;24.70;;;;;;2268486;61;20791;-53
2023/12/07 10:21:39;0.00;0.00;0.62;0.00;0.00;0.62;4.93;3.63;;;18.90;24.70;;;;;;2268399;61;20343;-53
2023/12/07 10:24:26;0.00;0.00;0.62;0.00;0.00;0.62;5.33;3.93;;;18.90;24.70;;;;;;2265465;61;20403;-59
2023/12/07 10:27:12;0.00;0.00;0.62;0.00;0.00;0.62;5.40;3.87;;;18.90;24.70;;;;;;2269129;61;20957;-53
2023/12/07 10:29:59;0.00;0.00;0.62;0.00;0.00;0.62;5.30;4.07;;;18.90;24.70;;;;;;2269051;61;20782;-58
2023/12/07 10:32:44;0.00;0.00;0.62;0.00;0.00;0.62;5.50;4.60;;;19.00;24.80;;;;;;2268184;61;20433;-54
2023/12/07 10:35:29;0.00;0.00;0.62;0.00;0.00;0.62;5.20;4.00;;;18.90;24.70;;;;;;2265689;61;20378;-57
2023/12/07 10:38:14;0.00;0.00;0.62;0.00;0.00;0.62;4.40;3.90;;;18.90;24.70;;;;;;2268791;61;20451;-58
2023/12/07 10:41:06;0.00;0.00;0.62;0.00;0.00;0.62;4.73;3.80;;;18.90;24.70;;;;;;2268404;61;20413;-58
2023/12/07 10:43:57;0.00;0.00;0.62;0.00;0.00;0.62;4.60;3.60;;;19.00;24.80;;;;;;2268611;61;20952;-59
2023/12/07 10:46:43;0.00;0.00;0.62;0.00;0.00;0.62;4.57;3.93;;;19.00;24.80;;;;;;2268402;61;20379;-56
2023/12/07 10:49:28;0.00;0.00;0.62;0.00;0.00;0.62;5.87;4.50;;;19.00;24.80;;;;;;2268883;61;20827;-57
2023/12/07 10:52:16;0.00;0.00;0.62;0.00;0.00;0.62;4.93;4.00;;;19.00;24.80;;;;;;2268568;61;20883;-56